Time;durP1;ratioP1;P1;durP2;ratioP2;P2;SDS_P1;SDS_P2;PMS_P1;PMS_P2;Temp;Humidity;BMP_temperature;BMP_pressure;BME280_temperature;BME280_humidity;BME280_pressure;Samples;Min_cycle;Max_cycle;Signal;HPM_P1;HPM_P2
2023/01/24 00:00:04;;;;;;;35.67;28.30;;;1.70;99.90;;;;;;6214442;23;20323;-80
2023/01/24 00:02:30;;;;;;;34.78;27.95;;;1.70;99.90;;;;;;6214069;23;20348;-81
2023/01/24 00:04:56;;;;;;;35.47;28.05;;;1.90;99.90;;;;;;6214014;23;20326;-80
2023/01/24 00:07:24;;;;;;;34.30;27.27;;;1.90;99.90;;;;;;6211301;23;20413;-79
2023/01/24 00:09:53;;;;;;;35.22;27.65;;;1.90;99.90;;;;;;6214235;23;20821;-79
2023/01/24 00:12:19;;;;;;;36.35;28.17;;;1.90;99.90;;;;;;6213745;23;20844;-78
2023/01/24 00:14:44;;;;;;;35.95;27.83;;;1.90;99.90;;;;;;6214287;23;20366;-79
2023/01/24 00:17:10;;;;;;;33.72;27.65;;;1.80;99.90;;;;;;6211667;23;20354;-78
2023/01/24 00:19:36;;;;;;;31.38;26.58;;;1.80;99.90;;;;;;6213699;23;20341;-79
2023/01/24 00:22:06;;;;;;;36.30;27.13;;;1.90;99.90;;;;;;6213954;23;20654;-79
2023/01/24 00:24:35;;;;;;;35.75;26.85;;;1.80;99.90;;;;;;6214021;23;20338;-79
2023/01/24 00:27:05;;;;;;;32.87;26.67;;;1.80;99.90;;;;;;6213085;23;20427;-78
2023/01/24 00:29:31;;;;;;;32.05;26.40;;;1.80;99.90;;;;;;6214188;23;20354;-78
2023/01/24 00:32:25;;;;;;;33.95;26.75;;;1.70;99.90;;;;;;6210888;23;20337;-77
2023/01/24 00:34:52;;;;;;;33.42;26.20;;;1.70;99.90;;;;;;6211666;23;20342;-78
2023/01/24 00:37:20;;;;;;;32.58;24.67;;;1.80;99.90;;;;;;6213498;23;20405;-78
2023/01/24 00:39:46;;;;;;;32.07;25.40;;;1.80;99.90;;;;;;6213760;23;20354;-78
2023/01/24 00:42:12;;;;;;;32.42;24.95;;;1.70;99.90;;;;;;6213027;23;20666;-77
2023/01/24 00:44:38;;;;;;;31.47;25.13;;;1.80;99.90;;;;;;6214426;23;20857;-78
2023/01/24 00:47:06;;;;;;;33.17;24.90;;;1.70;99.90;;;;;;6201467;23;20377;-79
2023/01/24 00:49:33;;;;;;;30.38;24.77;;;1.60;99.90;;;;;;6199874;23;20357;-79
2023/01/24 00:51:58;;;;;;;34.40;25.60;;;1.60;99.90;;;;;;6197786;23;20499;-78
2023/01/24 00:54:24;;;;;;;31.67;24.13;;;1.60;99.90;;;;;;6196695;23;20829;-79
2023/01/24 00:56:52;;;;;;;33.43;24.63;;;1.70;99.90;;;;;;6212717;23;20928;-80
2023/01/24 00:59:18;;;;;;;32.33;25.17;;;1.70;99.90;;;;;;6217232;23;20397;-78
2023/01/24 01:01:44;;;;;;;33.53;25.43;;;1.70;99.90;;;;;;6204908;23;20350;-79
2023/01/24 01:04:10;;;;;;;36.60;25.05;;;1.70;99.90;;;;;;6199357;23;20353;-78
2023/01/24 01:06:36;;;;;;;34.28;25.02;;;1.70;99.90;;;;;;6194939;23;20362;-77
2023/01/24 01:09:02;;;;;;;32.42;24.55;;;1.70;99.90;;;;;;6194390;23;20330;-78
2023/01/24 01:11:28;;;;;;;32.30;24.73;;;1.80;99.90;;;;;;6196332;23;20345;-77
2023/01/24 01:13:55;;;;;;;32.25;23.73;;;1.80;99.90;;;;;;6196041;23;20713;-77
2023/01/24 01:16:25;;;;;;;31.00;24.20;;;1.70;99.90;;;;;;6194097;23;20354;-80
2023/01/24 01:18:54;;;;;;;32.38;24.55;;;1.70;99.90;;;;;;6192328;23;20369;-79
2023/01/24 01:21:22;;;;;;;33.13;25.27;;;1.80;99.90;;;;;;6194920;23;20346;-78
2023/01/24 01:23:48;;;;;;;33.65;23.92;;;1.70;99.90;;;;;;6195397;23;20337;-80
2023/01/24 01:26:19;;;;;;;33.17;23.45;;;1.80;99.90;;;;;;6212639;23;20844;-79
2023/01/24 01:28:46;;;;;;;34.58;24.20;;;1.80;99.90;;;;;;6212757;23;20419;-79
2023/01/24 01:31:12;;;;;;;32.27;24.03;;;1.80;99.90;;;;;;6212537;23;20349;-79
2023/01/24 01:33:37;;;;;;;34.95;24.42;;;1.70;99.90;;;;;;6213059;23;20349;-77
2023/01/24 01:36:04;;;;;;;34.05;23.85;;;1.70;99.90;;;;;;6212895;23;20338;-79
2023/01/24 01:38:30;;;;;;;36.15;24.88;;;1.60;99.90;;;;;;6211070;23;20365;-79
2023/01/24 01:40:57;;;;;;;34.70;24.60;;;1.50;99.90;;;;;;6213660;23;20786;-79
2023/01/24 01:43:28;;;;;;;35.35;24.05;;;1.50;99.90;;;;;;6211227;23;20346;-79
2023/01/24 01:45:59;;;;;;;32.75;22.45;;;1.50;99.90;;;;;;6212913;23;20401;-78
2023/01/24 01:48:47;;;;;;;36.13;24.17;;;1.60;99.90;;;;;;6212424;23;20365;-78
2023/01/24 01:51:24;;;;;;;35.35;23.85;;;1.60;99.90;;;;;;6213232;23;20401;-80
2023/01/24 01:56:40;;;;;;;32.45;22.77;;;1.60;99.90;;;;;;6200237;22;20459;-78
2023/01/24 01:59:29;;;;;;;35.05;23.63;;;1.50;99.90;;;;;;6210533;23;20350;-79
2023/01/24 02:01:57;;;;;;;36.80;24.65;;;1.40;99.90;;;;;;6210916;23;20381;-78
2023/01/24 02:04:29;;;;;;;36.30;24.03;;;1.20;99.90;;;;;;6211659;23;20350;-78
2023/01/24 02:07:02;;;;;;;39.60;25.13;;;1.30;99.90;;;;;;6210981;23;20374;-77
2023/01/24 02:09:36;;;;;;;36.45;23.50;;;1.30;99.90;;;;;;6211144;23;20340;-78
2023/01/24 02:12:06;;;;;;;32.65;22.90;;;1.30;99.90;;;;;;6211267;23;20345;-78
2023/01/24 02:17:19;;;;;;;36.22;24.08;;;1.30;99.90;;;;;;6211139;23;20842;-78
2023/01/24 02:20:17;;;;;;;39.05;23.67;;;1.40;99.90;;;;;;6210905;23;20349;-77
2023/01/24 02:23:03;;;;;;;38.47;24.38;;;1.40;99.90;;;;;;6211347;23;20346;-79
2023/01/24 02:25:41;;;;;;;36.53;24.17;;;1.40;99.90;;;;;;6209974;23;20365;-78
2023/01/24 02:28:09;;;;;;;37.55;23.75;;;1.40;99.90;;;;;;6210920;23;20801;-78
2023/01/24 02:30:36;;;;;;;33.25;22.45;;;1.40;99.90;;;;;;6182667;23;20809;-79
2023/01/24 02:33:19;;;;;;;34.90;22.55;;;1.30;99.90;;;;;;6211201;23;20346;-79
2023/01/24 02:35:45;;;;;;;34.97;23.00;;;1.30;99.90;;;;;;6184641;23;20846;-79
2023/01/24 02:38:27;;;;;;;36.17;23.13;;;1.20;99.90;;;;;;6183779;23;20354;-79
2023/01/24 02:41:04;;;;;;;35.83;22.97;;;1.20;99.90;;;;;;6210233;23;20436;-78
2023/01/24 02:43:31;;;;;;;31.70;21.95;;;1.40;99.90;;;;;;6184144;23;20415;-79
2023/01/24 02:46:03;;;;;;;33.20;21.87;;;1.30;99.90;;;;;;6211445;23;20486;-79
2023/01/24 02:48:49;;;;;;;29.83;21.27;;;1.30;99.90;;;;;;6211190;23;20693;-78
2023/01/24 02:53:59;;;;;;;24.50;18.98;;;1.30;99.90;;;;;;6213304;23;20420;-80
2023/01/24 02:59:29;;;;;;;23.10;17.73;;;1.10;99.90;;;;;;6208504;23;20372;-78
2023/01/24 03:01:55;;;;;;;23.20;17.97;;;1.20;99.90;;;;;;6215719;23;20374;-79
2023/01/24 03:04:21;;;;;;;22.90;18.27;;;1.10;99.90;;;;;;6217212;23;20413;-78
2023/01/24 03:06:48;;;;;;;23.53;18.07;;;1.10;99.90;;;;;;6230187;23;20382;-79
2023/01/24 03:09:33;;;;;;;21.30;17.30;;;1.00;99.90;;;;;;6228528;23;20380;-79
2023/01/24 03:36:49;;;;;;;19.10;16.30;;;0.90;99.90;;;;;;6210863;23;20828;-77
2023/01/24 03:42:03;;;;;;;17.73;15.70;;;1.00;99.90;;;;;;6212242;23;20357;-78
2023/01/24 03:44:29;;;;;;;17.85;15.07;;;0.90;99.90;;;;;;6212545;23;20346;-78
2023/01/24 03:46:55;;;;;;;20.17;16.35;;;0.90;99.90;;;;;;6185535;23;20378;-78
2023/01/24 03:55:00;;;;;;;16.83;14.98;;;1.00;99.90;;;;;;6211673;23;20444;-79
2023/01/24 03:57:30;;;;;;;17.67;15.25;;;1.00;99.90;;;;;;6212108;23;20370;-77
2023/01/24 03:59:56;;;;;;;18.30;14.77;;;1.10;99.90;;;;;;6211121;23;20417;-78
2023/01/24 04:02:24;;;;;;;18.55;14.73;;;0.90;99.90;;;;;;6212858;23;20369;-78
2023/01/24 04:07:34;;;;;;;16.87;14.97;;;1.00;99.90;;;;;;6212082;23;20424;-77
2023/01/24 04:10:00;;;;;;;17.77;15.23;;;1.00;99.90;;;;;;6208189;23;20939;-80
2023/01/24 04:12:26;;;;;;;15.77;14.07;;;1.10;99.90;;;;;;6185294;23;20361;-78
2023/01/24 04:14:52;;;;;;;16.75;14.63;;;1.10;99.90;;;;;;6211719;23;20334;-80
2023/01/24 04:17:18;;;;;;;15.32;13.68;;;1.10;99.90;;;;;;6211557;23;20409;-80
2023/01/24 04:20:14;;;;;;;;;;;;;;;;;;;;;
2023/01/24 04:23:09;;;;;;;;;;;;;;;;;;;;;
2023/01/24 04:25:39;;;;;;;15.93;13.93;;;1.20;99.90;;;;;;6211571;23;20442;-78
2023/01/24 04:28:05;;;;;;;15.30;13.70;;;1.10;99.90;;;;;;6210743;23;20373;-77
2023/01/24 04:30:48;;;;;;;16.33;14.53;;;1.00;99.90;;;;;;6212669;23;20338;-80
2023/01/24 04:33:26;;;;;;;;;;;;;;;;;;;;;
2023/01/24 04:36:01;;;;;;;16.93;15.20;;;0.90;99.90;;;;;;6206047;23;20518;-77
2023/01/24 04:38:53;;;;;;;15.80;13.90;;;0.90;99.90;;;;;;6211634;23;20370;-78
2023/01/24 04:41:19;;;;;;;16.48;14.13;;;0.90;99.90;;;;;;6211360;23;20358;-77
2023/01/24 04:43:54;;;;;;;;;;;;;;;;;;;;;
2023/01/24 04:46:24;;;;;;;15.73;14.13;;;1.00;99.90;;;;;;6210992;23;20464;-79
2023/01/24 04:48:54;;;;;;;15.63;13.82;;;0.90;99.90;;;;;;6183211;23;20481;-79
2023/01/24 04:51:43;;;;;;;15.55;13.95;;;0.90;99.90;;;;;;6211149;23;20343;-78
2023/01/24 04:54:37;;;;;;;;;;;;;;;;;;;;;
2023/01/24 04:57:03;;;;;;;14.20;12.73;;;0.90;99.90;;;;;;6211396;23;20425;-79
2023/01/24 04:59:29;;;;;;;15.13;13.60;;;1.00;99.90;;;;;;6211762;23;20384;-78
2023/01/24 05:01:55;;;;;;;14.80;13.25;;;1.00;99.90;;;;;;6184965;23;20350;-78
2023/01/24 05:04:20;;;;;;;15.93;14.33;;;0.90;99.90;;;;;;6211562;23;20434;-78
2023/01/24 05:06:46;;;;;;;15.83;13.80;;;0.80;99.90;;;;;;6183749;23;20374;-79
2023/01/24 05:09:12;;;;;;;13.80;12.30;;;0.80;99.90;;;;;;6211434;23;20348;-78
2023/01/24 05:11:43;;;;;;;14.63;13.13;;;0.90;99.90;;;;;;6211350;23;20354;-80
2023/01/24 05:14:10;;;;;;;13.73;12.40;;;0.90;99.90;;;;;;6211627;23;20774;-79
2023/01/24 05:16:36;;;;;;;13.95;12.57;;;0.90;99.90;;;;;;6184260;23;20701;-78
2023/01/24 05:19:03;;;;;;;14.82;13.32;;;0.80;99.90;;;;;;6212112;23;20877;-79
2023/01/24 05:21:34;;;;;;;14.52;13.07;;;0.80;99.90;;;;;;6184308;23;20392;-80
2023/01/24 05:23:59;;;;;;;14.75;13.25;;;0.80;99.90;;;;;;6185041;23;20720;-77
2023/01/24 05:26:26;;;;;;;14.73;13.33;;;0.70;99.90;;;;;;6212291;23;20505;-78
2023/01/24 05:28:53;;;;;;;14.80;13.30;;;0.70;99.90;;;;;;6211803;23;20350;-79
2023/01/24 05:31:21;;;;;;;15.77;14.25;;;0.70;99.90;;;;;;6211609;23;20416;-79
2023/01/24 05:33:48;;;;;;;15.23;13.65;;;0.70;99.90;;;;;;6211900;23;20704;-78
2023/01/24 05:36:18;;;;;;;15.10;13.50;;;0.50;99.90;;;;;;6209696;23;20620;-77
2023/01/24 05:38:44;;;;;;;15.00;13.50;;;0.50;99.90;;;;;;6211208;23;20338;-80
2023/01/24 05:41:13;;;;;;;14.77;13.32;;;0.60;99.90;;;;;;6211264;23;20429;-78
2023/01/24 05:43:39;;;;;;;15.55;14.05;;;0.70;99.90;;;;;;6211938;23;20353;-79
2023/01/24 05:46:16;;;;;;;15.75;14.15;;;0.60;99.90;;;;;;6212112;23;20346;-78
2023/01/24 05:48:42;;;;;;;15.25;13.75;;;0.60;99.90;;;;;;6212024;23;20365;-78
2023/01/24 05:51:10;;;;;;;15.27;13.73;;;0.60;99.90;;;;;;6186804;23;20374;-79
2023/01/24 05:53:38;;;;;;;15.30;13.88;;;0.80;99.90;;;;;;6217482;23;20366;-78
2023/01/24 05:56:13;;;;;;;15.45;13.80;;;0.80;99.90;;;;;;6225049;23;20808;-79
2023/01/24 05:58:42;;;;;;;15.07;13.57;;;0.80;99.90;;;;;;6214423;23;20710;-78
2023/01/24 06:01:16;;;;;;;14.97;13.47;;;0.80;99.90;;;;;;6210168;23;20349;-79
2023/01/24 06:03:42;;;;;;;15.07;13.57;;;0.80;99.90;;;;;;6210500;23;20993;-80
2023/01/24 06:06:18;;;;;;;15.88;14.27;;;0.70;99.90;;;;;;6210837;23;20661;-78
2023/01/24 06:08:44;;;;;;;14.77;13.27;;;0.70;99.90;;;;;;6183666;23;20852;-78
2023/01/24 06:11:12;;;;;;;15.32;13.80;;;0.80;99.90;;;;;;6210922;23;20820;-79
2023/01/24 06:13:38;;;;;;;14.00;12.60;;;0.70;99.90;;;;;;6211193;23;20404;-78
2023/01/24 06:16:06;;;;;;;16.95;14.23;;;0.80;99.90;;;;;;6209137;23;20429;-79
2023/01/24 06:37:39;;;;;;;;;;;;;;;;;;;;;
2023/01/24 06:48:40;;;;;;;;;;;;;;;;;;;;;
2023/01/24 06:51:32;;;;;;;15.73;14.05;;;0.70;99.90;;;;;;6002587;23;20441;-78
2023/01/24 06:54:17;;;;;;;;;;;;;;;;;;;;;
2023/01/24 07:14:52;;;;;;;16.55;14.93;;;0.50;99.90;;;;;;5784665;24;20462;-78
2023/01/24 07:31:48;;;;;;;15.85;14.25;;;0.70;99.90;;;;;;5838593;24;20426;-79
2023/01/24 07:34:44;;;;;;;;;;;;;;;;;;;;;
2023/01/24 07:40:42;;;;;;;17.35;15.55;;;0.70;99.90;;;;;;6192697;23;20350;-78
2023/01/24 07:44:07;;;;;;;;;;;;;;;;;;;;;
2023/01/24 07:52:57;;;;;;;15.80;14.20;;;1.20;99.90;;;;;;6167276;23;20346;-78
2023/01/24 07:55:45;;;;;;;16.93;15.20;;;1.10;99.90;;;;;;6186038;23;20523;-79
2023/01/24 07:58:29;;;;;;;17.45;15.55;;;1.10;99.90;;;;;;6185481;23;20825;-80
2023/01/24 08:01:35;;;;;;;16.77;15.07;;;1.10;99.90;;;;;;6185502;23;20358;-80
2023/01/24 08:08:05;;;;;;;16.35;14.65;;;1.30;99.90;;;;;;6150903;23;20389;-79
2023/01/24 08:11:27;;;;;;;;;;;;;;;;;;;;;
2023/01/24 08:14:29;;;;;;;;;;;;;;;;;;;;;
2023/01/24 08:17:38;;;;;;;;;;;;;;;;;;;;;
2023/01/24 08:20:34;;;;;;;16.88;15.13;;;1.30;99.90;;;;;;6211201;23;20889;-79
2023/01/24 08:23:35;;;;;;;;;;;;;;;;;;;;;
2023/01/24 08:26:33;;;;;;;17.48;15.68;;;1.10;99.90;;;;;;6213897;23;20485;-79
2023/01/24 08:29:13;;;;;;;18.20;16.25;;;1.00;99.90;;;;;;6175035;23;20370;-80
2023/01/24 08:37:43;;;;;;;;;;;;;;;;;;;;;
2023/01/24 08:40:23;;;;;;;;;;;;;;;;;;;;;
2023/01/24 08:42:49;;;;;;;19.38;16.20;;;1.20;99.90;;;;;;6222896;23;20377;-78
2023/01/24 08:45:37;;;;;;;18.97;16.20;;;1.20;99.90;;;;;;6211964;23;20832;-79
2023/01/24 08:48:07;;;;;;;21.75;17.30;;;1.40;99.90;;;;;;6184465;23;20496;-79
2023/01/24 08:50:38;;;;;;;22.75;17.45;;;1.50;99.90;;;;;;6183804;23;20369;-80
2023/01/24 08:53:27;;;;;;;22.50;17.55;;;1.40;99.90;;;;;;6186933;23;20378;-80
2023/01/24 08:55:56;;;;;;;22.80;17.85;;;1.50;99.90;;;;;;6187232;23;20354;-80
2023/01/24 08:58:22;;;;;;;23.58;17.48;;;1.60;99.90;;;;;;6162695;23;20679;-79
2023/01/24 09:01:20;;;;;;;24.33;18.30;;;1.50;99.90;;;;;;6213978;23;20658;-79
2023/01/24 09:03:48;;;;;;;23.83;18.70;;;1.40;99.90;;;;;;6212962;23;20338;-79
2023/01/24 09:06:14;;;;;;;24.80;18.45;;;1.40;99.90;;;;;;6214137;23;20806;-80
2023/01/24 09:08:40;;;;;;;24.15;17.90;;;1.40;99.90;;;;;;6214307;23;20338;-80
2023/01/24 09:11:06;;;;;;;25.88;19.30;;;1.60;99.90;;;;;;6187072;23;20430;-80
2023/01/24 09:13:33;;;;;;;29.02;19.40;;;1.60;99.90;;;;;;6213743;23;20362;-81
2023/01/24 09:15:59;;;;;;;31.90;19.77;;;1.60;99.90;;;;;;6212602;23;20793;-80
2023/01/24 09:18:25;;;;;;;27.60;19.30;;;1.60;99.90;;;;;;6207473;23;20342;-80
2023/01/24 09:20:54;;;;;;;31.05;20.27;;;1.70;99.90;;;;;;6186637;23;20358;-81
2023/01/24 09:23:19;;;;;;;34.10;21.55;;;1.60;99.90;;;;;;6187803;23;20338;-81
2023/01/24 09:25:54;;;;;;;30.58;20.17;;;1.60;99.90;;;;;;6213377;23;20381;-80
2023/01/24 09:28:21;;;;;;;34.07;20.90;;;1.70;99.90;;;;;;6213337;23;20390;-80
2023/01/24 09:30:48;;;;;;;33.17;21.35;;;1.80;99.90;;;;;;6213571;23;20847;-80
2023/01/24 09:33:15;;;;;;;41.45;23.33;;;1.90;99.90;;;;;;6212566;23;20373;-81
2023/01/24 09:35:41;;;;;;;43.97;25.10;;;1.70;99.90;;;;;;6213051;23;20342;-80
2023/01/24 09:38:07;;;;;;;43.80;25.58;;;1.80;99.90;;;;;;6212039;23;20356;-80
2023/01/24 09:41:21;;;;;;;44.92;25.38;;;1.90;99.90;;;;;;6185824;23;20421;-80
2023/01/24 09:44:09;;;;;;;46.15;25.58;;;1.60;99.90;;;;;;6178603;23;20358;-80
2023/01/24 09:46:45;;;;;;;46.35;26.75;;;1.90;99.90;;;;;;6213517;23;20859;-80
2023/01/24 09:49:28;;;;;;;49.35;27.02;;;2.00;99.90;;;;;;6186203;23;20354;-80
2023/01/24 09:51:54;;;;;;;50.28;26.70;;;2.00;99.90;;;;;;6213833;23;20334;-81
2023/01/24 09:54:46;;;;;;;52.00;27.88;;;2.10;99.90;;;;;;6213360;23;20349;-80
2023/01/24 09:57:27;;;;;;;51.80;27.50;;;2.10;99.90;;;;;;6212030;23;20358;-80
2023/01/24 09:59:58;;;;;;;54.58;28.52;;;2.20;99.90;;;;;;6213914;23;20338;-80
2023/01/24 10:02:27;;;;;;;55.72;27.92;;;2.30;99.90;;;;;;6211837;23;20777;-80
2023/01/24 10:04:53;;;;;;;53.75;29.17;;;2.40;99.90;;;;;;6214121;23;20409;-80
2023/01/24 10:07:30;;;;;;;55.30;28.40;;;2.50;99.90;;;;;;6185025;23;20472;-80
2023/01/24 10:10:07;;;;;;;56.78;28.70;;;2.50;99.90;;;;;;6185734;23;20365;-81
2023/01/24 10:13:00;;;;;;;55.42;28.50;;;2.40;99.90;;;;;;6211410;23;20400;-81
2023/01/24 10:15:35;;;;;;;54.97;28.85;;;2.50;99.90;;;;;;6213390;23;20344;-81
2023/01/24 10:18:31;;;;;;;61.47;28.70;;;2.60;99.90;;;;;;6212662;23;20433;-80
2023/01/24 10:21:14;;;;;;;53.87;28.90;;;2.80;99.90;;;;;;6180746;23;20360;-80
2023/01/24 10:23:47;;;;;;;57.65;29.20;;;2.60;99.90;;;;;;6213297;23;20330;-81
2023/01/24 10:26:27;;;;;;;58.90;30.00;;;2.60;99.90;;;;;;6186470;23;20357;-80
2023/01/24 10:28:55;;;;;;;64.93;30.08;;;2.50;99.90;;;;;;6211789;23;20342;-79
2023/01/24 10:31:28;;;;;;;59.55;29.83;;;2.60;99.90;;;;;;6212645;23;20424;-80
2023/01/24 10:34:06;;;;;;;58.38;28.95;;;2.80;99.90;;;;;;6212647;23;20681;-80
2023/01/24 10:37:02;;;;;;;59.80;29.63;;;2.90;99.90;;;;;;6185675;23;20790;-80
2023/01/24 10:39:27;;;;;;;62.50;31.17;;;3.00;99.90;;;;;;6211860;23;20346;-79
2023/01/24 10:41:54;;;;;;;62.25;30.70;;;2.90;99.90;;;;;;6213436;23;20661;-79
2023/01/24 10:44:25;;;;;;;60.13;29.80;;;2.90;99.90;;;;;;6212935;23;20349;-79
2023/01/24 10:47:40;;;;;;;58.38;29.73;;;3.00;99.90;;;;;;6210842;23;20381;-80
2023/01/24 10:50:10;;;;;;;57.00;28.67;;;3.00;99.90;;;;;;6135811;23;20350;-80
2023/01/24 10:52:36;;;;;;;59.67;29.13;;;2.80;99.90;;;;;;6212973;23;20868;-80
2023/01/24 10:55:23;;;;;;;53.05;26.33;;;2.70;99.90;;;;;;6212072;23;20342;-80
2023/01/24 10:57:54;;;;;;;57.40;28.37;;;2.70;99.90;;;;;;6186139;23;20338;-80
2023/01/24 11:00:30;;;;;;;52.40;28.20;;;2.50;99.90;;;;;;6212762;23;20730;-80
2023/01/24 11:03:19;;;;;;;52.72;27.48;;;2.50;99.90;;;;;;6184050;23;20801;-80
2023/01/24 11:05:57;;;;;;;49.50;25.73;;;2.40;99.90;;;;;;6186294;23;20947;-79
2023/01/24 11:08:25;;;;;;;52.28;25.27;;;2.50;99.90;;;;;;6185999;23;20399;-80
2023/01/24 11:11:00;;;;;;;46.65;25.58;;;2.60;99.90;;;;;;6215403;23;20805;-80
2023/01/24 11:13:34;;;;;;;45.00;25.15;;;2.50;99.90;;;;;;6185213;23;20398;-80
2023/01/24 11:16:17;;;;;;;51.17;24.92;;;2.60;99.90;;;;;;6188556;23;20739;-81
2023/01/24 11:19:07;;;;;;;51.73;26.00;;;2.60;99.90;;;;;;6187639;23;20372;-81
2023/01/24 11:21:50;;;;;;;47.90;24.07;;;2.60;99.90;;;;;;6189391;23;20349;-81
2023/01/24 11:24:16;;;;;;;45.28;24.23;;;2.70;99.90;;;;;;6229096;23;20365;-80
2023/01/24 11:27:06;;;;;;;46.58;25.35;;;2.60;99.90;;;;;;6234085;23;20374;-81
2023/01/24 11:29:34;;;;;;;49.17;25.90;;;2.70;99.90;;;;;;6190915;23;20396;-80
2023/01/24 11:32:42;;;;;;;45.13;25.27;;;2.50;99.90;;;;;;6214918;23;20388;-81
2023/01/24 11:35:48;;;;;;;47.90;24.67;;;2.60;99.90;;;;;;6213164;23;20478;-81
2023/01/24 11:38:21;;;;;;;46.15;25.33;;;2.60;99.90;;;;;;6165037;23;20346;-82
2023/01/24 11:41:00;;;;;;;44.60;23.50;;;2.60;99.90;;;;;;6187304;23;20357;-81
2023/01/24 11:44:02;;;;;;;44.65;23.67;;;2.60;99.90;;;;;;6212810;23;20697;-81
2023/01/24 11:47:10;;;;;;;47.22;24.80;;;2.70;99.90;;;;;;6187871;23;20484;-81
2023/01/24 11:49:44;;;;;;;43.80;23.60;;;2.90;99.90;;;;;;6213570;23;21053;-81
2023/01/24 11:52:24;;;;;;;41.78;22.77;;;2.80;99.90;;;;;;6186850;23;20372;-81
2023/01/24 11:55:16;;;;;;;39.80;21.67;;;3.00;99.90;;;;;;6185405;23;20358;-81
2023/01/24 11:58:05;;;;;;;44.67;23.05;;;3.10;99.90;;;;;;6199730;23;20394;-79
2023/01/24 12:00:54;;;;;;;42.17;22.75;;;3.10;99.90;;;;;;6187197;23;20565;-81
2023/01/24 12:04:00;;;;;;;38.15;21.85;;;3.20;99.90;;;;;;6214802;23;20781;-81
2023/01/24 12:06:35;;;;;;;40.38;22.05;;;3.10;99.90;;;;;;6215944;23;20449;-80
2023/01/24 12:09:22;;;;;;;44.28;23.23;;;2.80;99.90;;;;;;6210339;23;20356;-81
2023/01/24 12:12:02;;;;;;;41.58;22.13;;;2.70;99.90;;;;;;6211156;23;20377;-80
2023/01/24 12:14:51;;;;;;;38.10;21.67;;;2.90;99.90;;;;;;6185380;23;20429;-80
2023/01/24 12:17:38;;;;;;;38.08;21.80;;;2.90;99.90;;;;;;6187946;23;20666;-80
2023/01/24 12:20:21;;;;;;;39.08;21.80;;;2.90;99.90;;;;;;6187813;23;20396;-82
2023/01/24 12:22:53;;;;;;;42.03;22.48;;;2.80;99.90;;;;;;6214757;23;20350;-81
2023/01/24 12:26:04;;;;;;;35.88;20.77;;;2.70;99.90;;;;;;6186011;23;20334;-80
2023/01/24 12:28:38;;;;;;;36.85;21.38;;;2.80;99.90;;;;;;6103018;23;20472;-80
2023/01/24 12:31:06;;;;;;;34.88;19.00;;;3.10;99.90;;;;;;6188389;23;20350;-80
2023/01/24 12:33:53;;;;;;;37.65;20.75;;;3.00;99.90;;;;;;6187747;23;20385;-80
2023/01/24 12:36:45;;;;;;;36.03;20.08;;;3.00;99.90;;;;;;6187585;23;20369;-79
2023/01/24 12:39:17;;;;;;;35.22;21.02;;;3.00;99.90;;;;;;6213079;23;20357;-80
2023/01/24 12:41:54;;;;;;;33.33;20.83;;;3.00;99.90;;;;;;6213916;23;20674;-80
2023/01/24 12:44:31;;;;;;;34.78;19.67;;;2.90;99.90;;;;;;6184529;23;20364;-80
2023/01/24 12:47:22;;;;;;;30.77;19.15;;;2.70;99.90;;;;;;6214106;23;20362;-80
2023/01/24 12:50:15;;;;;;;33.78;19.58;;;2.90;99.90;;;;;;6183446;23;20346;-80
2023/01/24 12:53:06;;;;;;;33.90;19.70;;;2.80;99.90;;;;;;6187451;23;20342;-80
2023/01/24 12:55:59;;;;;;;36.33;19.88;;;2.90;99.90;;;;;;6199173;23;20354;-80
2023/01/24 12:58:45;;;;;;;37.25;19.35;;;2.90;99.90;;;;;;6226864;23;20349;-81
2023/01/24 13:01:35;;;;;;;33.42;19.35;;;2.90;99.90;;;;;;6216043;23;20457;-80
2023/01/24 13:04:22;;;;;;;34.35;18.58;;;3.10;99.90;;;;;;6184268;23;20365;-80
2023/01/24 13:07:00;;;;;;;31.30;19.38;;;3.00;99.90;;;;;;6180586;23;20685;-80
2023/01/24 13:09:35;;;;;;;32.55;19.23;;;3.10;99.90;;;;;;6187518;23;20669;-81
2023/01/24 13:12:19;;;;;;;29.65;18.20;;;3.30;99.90;;;;;;6208048;23;20366;-80
2023/01/24 13:14:54;;;;;;;28.20;18.58;;;3.20;99.90;;;;;;6209928;23;20404;-81
2023/01/24 13:17:55;;;;;;;29.70;17.70;;;3.30;99.90;;;;;;6211676;23;20426;-79
2023/01/24 13:20:54;;;;;;;27.08;17.02;;;3.20;99.90;;;;;;6185659;23;20441;-80
2023/01/24 13:23:58;;;;;;;28.17;18.00;;;3.10;99.90;;;;;;6212065;23;20440;-80
2023/01/24 13:27:12;;;;;;;27.87;17.80;;;3.10;99.90;;;;;;6213764;23;20352;-80
2023/01/24 13:30:28;;;;;;;27.08;17.35;;;3.10;99.90;;;;;;6183617;23;20354;-81
2023/01/24 13:33:00;;;;;;;25.88;17.13;;;2.90;99.90;;;;;;6209667;23;20422;-79
2023/01/24 13:35:27;;;;;;;28.27;17.08;;;2.70;99.90;;;;;;6184990;23;20418;-80
2023/01/24 13:38:15;;;;;;;26.92;16.95;;;2.70;99.90;;;;;;6211977;23;20496;-81
2023/01/24 13:40:57;;;;;;;26.77;17.20;;;2.70;99.90;;;;;;6185691;23;20801;-80
2023/01/24 13:43:55;;;;;;;25.80;16.33;;;2.80;99.90;;;;;;6185582;23;20369;-80
2023/01/24 13:46:43;;;;;;;25.02;16.88;;;3.00;99.90;;;;;;6185351;23;20362;-80
2023/01/24 13:49:18;;;;;;;26.08;16.15;;;2.80;99.90;;;;;;6212567;23;20573;-81
2023/01/24 13:51:50;;;;;;;25.50;16.40;;;2.90;99.90;;;;;;6185079;23;20461;-80
2023/01/24 13:54:37;;;;;;;27.27;17.05;;;3.00;99.90;;;;;;6212438;23;20354;-79
2023/01/24 13:57:38;;;;;;;23.73;16.20;;;3.00;99.90;;;;;;6184612;23;20361;-80
2023/01/24 14:00:03;;;;;;;24.48;17.13;;;3.00;99.90;;;;;;6186910;23;20354;-79
2023/01/24 14:02:34;;;;;;;25.08;16.38;;;3.00;99.90;;;;;;6213006;23;20350;-79
2023/01/24 14:05:23;;;;;;;25.23;16.50;;;2.90;99.90;;;;;;6186755;23;20358;-79
2023/01/24 14:08:14;;;;;;;26.88;17.92;;;2.80;99.90;;;;;;6206415;23;20708;-79
2023/01/24 14:10:45;;;;;;;26.15;16.20;;;2.70;99.90;;;;;;6226664;23;20709;-79
2023/01/24 14:13:55;;;;;;;25.20;16.80;;;2.70;99.90;;;;;;6215436;23;20338;-81
2023/01/24 14:16:24;;;;;;;23.73;16.38;;;2.70;99.90;;;;;;6186052;23;20381;-80
2023/01/24 14:19:12;;;;;;;26.20;16.73;;;2.80;99.90;;;;;;6212220;23;20369;-80
2023/01/24 14:22:05;;;;;;;24.30;16.20;;;2.80;99.90;;;;;;6183366;23;20381;-79
2023/01/24 14:24:55;;;;;;;22.55;16.52;;;2.80;99.90;;;;;;6213870;23;20610;-81
2023/01/24 14:27:35;;;;;;;25.90;16.70;;;2.90;99.90;;;;;;6212597;23;20477;-79
2023/01/24 14:30:26;;;;;;;23.77;16.42;;;2.80;99.90;;;;;;6186606;23;20937;-79
2023/01/24 14:33:00;;;;;;;22.30;16.23;;;2.90;99.90;;;;;;6213377;23;20338;-79
2023/01/24 14:35:30;;;;;;;22.58;16.20;;;2.90;99.90;;;;;;6213048;23;20797;-81
2023/01/24 14:38:16;;;;;;;21.98;16.10;;;3.00;99.90;;;;;;6186326;23;20378;-80
2023/01/24 14:40:48;;;;;;;24.60;17.38;;;3.00;99.90;;;;;;6209478;23;20440;-80
2023/01/24 14:43:20;;;;;;;24.00;17.10;;;3.10;99.90;;;;;;6211376;23;20508;-80
2023/01/24 14:45:52;;;;;;;23.23;17.05;;;3.00;99.90;;;;;;6214377;23;20350;-80
2023/01/24 14:48:25;;;;;;;24.08;16.95;;;3.00;99.90;;;;;;6215238;23;20396;-79
2023/01/24 14:51:04;;;;;;;24.73;17.52;;;2.90;99.90;;;;;;6215310;23;20353;-80
2023/01/24 14:53:33;;;;;;;24.60;17.20;;;2.90;99.90;;;;;;6188436;23;20357;-80
2023/01/24 14:56:10;;;;;;;26.40;17.53;;;2.80;99.90;;;;;;6215072;23;20353;-78
2023/01/24 14:58:36;;;;;;;24.05;17.05;;;2.70;99.90;;;;;;6213103;23;20352;-81
2023/01/24 15:01:03;;;;;;;25.20;16.98;;;2.70;99.90;;;;;;6186909;23;20437;-80
2023/01/24 15:03:33;;;;;;;24.38;16.77;;;2.60;99.90;;;;;;6213629;23;20393;-81
2023/01/24 15:06:06;;;;;;;25.17;16.58;;;2.70;99.90;;;;;;6213148;23;20346;-80
2023/01/24 15:08:35;;;;;;;24.38;16.50;;;2.60;99.90;;;;;;6186258;23;20424;-80
2023/01/24 15:11:05;;;;;;;19.70;14.97;;;2.70;99.90;;;;;;6212491;23;20373;-80
2023/01/24 15:13:44;;;;;;;24.35;16.70;;;2.70;99.90;;;;;;6187156;23;20346;-80
2023/01/24 15:16:28;;;;;;;23.98;16.13;;;2.70;99.90;;;;;;6187773;23;20444;-79
2023/01/24 15:19:04;;;;;;;24.13;17.37;;;2.70;99.90;;;;;;6188012;23;20438;-80
2023/01/24 15:21:38;;;;;;;23.02;16.60;;;2.70;99.90;;;;;;6190793;23;20750;-80
2023/01/24 15:24:26;;;;;;;21.27;15.35;;;2.70;99.90;;;;;;6188210;23;20575;-79
2023/01/24 15:26:56;;;;;;;22.23;16.33;;;2.70;99.90;;;;;;6213835;23;20366;-80
2023/01/24 15:29:40;;;;;;;24.87;17.60;;;2.70;99.90;;;;;;6188322;23;20357;-81
2023/01/24 15:32:24;;;;;;;22.43;16.27;;;2.70;99.90;;;;;;6215428;23;20366;-78
2023/01/24 15:34:50;;;;;;;21.45;17.08;;;2.70;99.90;;;;;;6214935;23;20358;-80
2023/01/24 15:37:18;;;;;;;27.20;19.57;;;2.70;99.90;;;;;;6188147;23;20391;-80
2023/01/24 15:39:44;;;;;;;25.90;19.40;;;2.70;99.90;;;;;;6214648;23;20342;-79
2023/01/24 15:45:14;;;;;;;25.88;19.13;;;2.60;99.90;;;;;;6214733;23;20670;-80
2023/01/24 15:47:48;;;;;;;33.22;22.48;;;2.60;99.90;;;;;;6214066;23;20396;-80
2023/01/24 15:53:23;;;;;;;33.92;24.08;;;2.60;99.90;;;;;;6214133;23;20345;-79
2023/01/24 15:55:58;;;;;;;36.97;25.95;;;2.70;99.90;;;;;;6213877;23;20380;-80